logo
Search for airport 
image banner adimage banner adimage banner ad
image banner ad

FAQF - Pomfret

Located in Pomfret, South Africa

ICAO - FAQF, IATA -

Data provided by Airmate  

General information

Coordinates: S25°50'53" E23°32'13"
Elevation is 3815 feet MSL.
 
View others Airports in North-West

Operational data

Special qualification required
Current time UTC:
Current local time:
Weather at : - ( 0 km )
METAR: KXSA 150935Z AUTO 21006KT 10SM CLR 18/08 A2983 RMK AO2 T01780083
View NOTAMs / SUP AIP / TFR affecting this airport [VIEW]
Communications frequencies: [VIEW]

Runways:

RWY identifierQFULength (ft)Width (ft)SurfaceLDA (ft)
01175°426549SAND
19355°426549SAND

Airport contact information

Address: Pomfret South Africa

Satellite view of FAQF